Pensacola Regional Airport
KPNS : now visible

Airfield :











YOU CAN JOIN US ON...

 
LOGIN :

Register | Disclaimer

   EN    FR    IT 

 









Legend :    VFR   Marginal VFR   IFR   Intensive IFR   Very Intensive IFR
Visi :
Ceiling :
>= 8 km
>= 3000ft
5 to 8 km
1000 to 3000 ft
1500m to 5 km
500 to 1000 ft
800 to 1500m
200 to 500 ft
< 800m
< 200 ft
Symbols :   Thunderstorms  Fog  Heavy snow  Heavy precipitations  Wind > 20 kt







- Airport Elevation : 121 ft
- IATA code : PNS


KPNS - Pensacola Regional

CURRENT METAR :
  • 181053Z 31005KT 10SM CLR 25/24 A2997 RMK AO2 SLP150 T02500244

EXPIRED METARs :
  • 180953Z AUTO 30008KT 10SM CLR 26/25 A2996 RMK AO2 SLP146 T02560250
  • 180853Z AUTO 32005KT 10SM CLR 26/25 A2995 RMK AO2 SLP142 T02560250 55004

TAF KPNS
Valid from the 18 at 12:00 until the 19 at 12:00 UTC


181136Z 1812/1912 32007KT P6SM SKC
FM181800 22009KT P6SM FEW050 FEW250
FM190000 29006KT P6SM FEW100 FEW250
FM190800 07007KT P6SM FEW100 FEW250
No reported NOTAMs for that airfield.



MET'MAP, your aeronautical weather chart ! - Copyright ORBIFLY December 2007 - Disclaimer

ORBIFLY MET'MAP TEAM :

Programming & Development : Alexandra Zaïnal
Concept & Development : Baudouin d'Aumeries
Co-Development & Prog : Marc-Olivier Méhu
Technical & hardware support : Manuel Goepfert

Contact : metmap@orbifly.com




SOURCES & CREDITS :

   NOAA       Earth
Advisory